Time;durP1;ratioP1;P1;durP2;ratioP2;P2;SDS_P1;SDS_P2;PMS_P1;PMS_P2;Temp;Humidity;BMP_temperature;BMP_pressure;BME280_temperature;BME280_humidity;BME280_pressure;Samples;Min_cycle;Max_cycle;Signal;HPM_P1;HPM_P2
2021/10/05 00:01:54;;;;;;;12.63;10.17;;;16.10;95.70;;;;;;4770702;30;20443;-70
2021/10/05 00:04:20;;;;;;;9.93;8.70;;;16.10;95.80;;;;;;4770173;30;20949;-70
2021/10/05 00:06:49;;;;;;;12.70;9.60;;;16.10;95.80;;;;;;4770456;30;20435;-70
2021/10/05 00:09:18;;;;;;;12.27;9.43;;;16.10;95.80;;;;;;4770030;30;20812;-70
2021/10/05 00:11:46;;;;;;;16.27;9.43;;;16.00;95.80;;;;;;4770200;30;20511;-70
2021/10/05 00:14:12;;;;;;;12.60;9.77;;;16.00;95.90;;;;;;4770362;30;20950;-70
2021/10/05 00:16:38;;;;;;;12.13;8.43;;;16.00;95.90;;;;;;4770129;30;20466;-70
2021/10/05 00:19:05;;;;;;;12.83;9.47;;;16.00;95.90;;;;;;4769873;30;20436;-70
2021/10/05 00:21:31;;;;;;;13.40;10.13;;;15.90;95.90;;;;;;4770019;30;20528;-70
2021/10/05 00:23:57;;;;;;;12.77;9.90;;;15.90;95.90;;;;;;4770298;30;20869;-70
2021/10/05 00:26:23;;;;;;;9.87;8.67;;;15.90;96.00;;;;;;4770033;30;20452;-70
2021/10/05 00:28:52;;;;;;;10.40;9.20;;;15.90;96.00;;;;;;4769799;30;20429;-70
2021/10/05 00:31:21;;;;;;;11.27;9.03;;;15.90;96.00;;;;;;4770053;30;20468;-70
2021/10/05 00:33:50;;;;;;;13.67;9.70;;;15.90;96.40;;;;;;4770002;30;20479;-71
2021/10/05 00:36:18;;;;;;;14.60;10.70;;;15.90;96.10;;;;;;4769808;30;20971;-70
2021/10/05 00:38:46;;;;;;;13.43;10.23;;;15.90;96.10;;;;;;4769676;30;20436;-70
2021/10/05 00:41:12;;;;;;;12.97;9.40;;;15.90;96.20;;;;;;4769770;30;20495;-70
2021/10/05 00:43:40;;;;;;;10.97;9.40;;;15.90;96.20;;;;;;4769644;30;20429;-70
2021/10/05 00:46:08;;;;;;;10.90;9.80;;;15.90;96.30;;;;;;4769837;30;20456;-70
2021/10/05 00:48:38;;;;;;;13.70;9.07;;;15.90;96.30;;;;;;4769639;30;20807;-70
2021/10/05 00:51:05;;;;;;;18.50;10.40;;;15.90;96.30;;;;;;4769727;30;20949;-70
2021/10/05 00:53:32;;;;;;;12.07;8.83;;;15.90;96.30;;;;;;4769288;30;20495;-70
2021/10/05 00:55:58;;;;;;;12.93;9.23;;;16.00;96.30;;;;;;4769764;30;20456;-70
2021/10/05 00:58:24;;;;;;;13.57;9.47;;;16.00;96.40;;;;;;4770870;30;20420;-70
2021/10/05 01:00:51;;;;;;;12.67;11.03;;;16.00;96.80;;;;;;4769370;30;20499;-71
2021/10/05 01:03:18;;;;;;;14.23;10.83;;;16.00;97.00;;;;;;4769655;30;20825;-70
2021/10/05 01:05:44;;;;;;;19.40;14.33;;;16.00;96.80;;;;;;4769569;30;20459;-71
2021/10/05 01:08:10;;;;;;;39.63;27.30;;;16.00;96.70;;;;;;4769543;30;20514;-70
2021/10/05 01:10:37;;;;;;;12.90;9.90;;;15.90;96.60;;;;;;4769709;30;20463;-70
2021/10/05 01:13:04;;;;;;;14.77;11.00;;;16.00;96.50;;;;;;4769416;30;20480;-71
2021/10/05 01:15:31;;;;;;;13.60;10.57;;;15.90;96.50;;;;;;4769545;30;20529;-70
2021/10/05 01:17:59;;;;;;;13.70;9.40;;;15.90;96.60;;;;;;4769267;30;20475;-70
2021/10/05 01:20:26;;;;;;;13.50;9.90;;;15.90;96.90;;;;;;4784267;30;20478;-70
2021/10/05 01:22:53;;;;;;;12.63;9.30;;;15.90;97.10;;;;;;4769743;30;20425;-70
2021/10/05 01:25:20;;;;;;;10.90;9.70;;;15.80;96.90;;;;;;4769253;30;20464;-70
2021/10/05 01:27:52;;;;;;;15.87;9.87;;;15.80;97.10;;;;;;4769325;30;20799;-70
2021/10/05 01:30:21;;;;;;;15.10;10.20;;;15.80;97.30;;;;;;4769219;30;20824;-70
2021/10/05 01:32:48;;;;;;;15.80;9.37;;;15.70;97.10;;;;;;4769607;30;20490;-71
2021/10/05 01:35:18;;;;;;;13.73;10.10;;;15.70;97.40;;;;;;4769532;30;20479;-70
2021/10/05 01:37:44;;;;;;;16.40;11.23;;;15.70;98.20;;;;;;4769338;30;20428;-71
2021/10/05 01:40:11;;;;;;;18.00;11.80;;;15.70;98.00;;;;;;4769384;30;20518;-71
2021/10/05 01:42:38;;;;;;;17.43;11.33;;;15.60;98.10;;;;;;4769278;30;20565;-71
2021/10/05 01:45:06;;;;;;;15.70;11.00;;;15.60;98.20;;;;;;4769109;30;20459;-71
2021/10/05 01:47:32;;;;;;;13.00;10.57;;;15.50;98.40;;;;;;4769096;30;20523;-70
2021/10/05 01:50:02;;;;;;;15.70;11.63;;;15.40;98.40;;;;;;4769162;30;20823;-70
2021/10/05 01:52:29;;;;;;;16.10;10.73;;;15.40;98.40;;;;;;4769084;30;20476;-70
2021/10/05 01:54:56;;;;;;;13.60;10.90;;;15.30;98.50;;;;;;4769483;30;20509;-70
2021/10/05 01:57:23;;;;;;;13.37;10.97;;;15.30;98.80;;;;;;4769249;30;20447;-71
2021/10/05 01:59:49;;;;;;;12.17;10.60;;;15.30;99.00;;;;;;4768750;30;20488;-71
2021/10/05 02:02:16;;;;;;;15.73;10.37;;;15.20;98.80;;;;;;4769023;30;20942;-71
2021/10/05 02:04:45;;;;;;;15.77;11.67;;;15.20;98.80;;;;;;4770638;29;20517;-71
2021/10/05 02:07:14;;;;;;;17.63;11.30;;;15.10;98.60;;;;;;4772382;30;20466;-71
2021/10/05 02:09:40;;;;;;;16.43;11.63;;;15.10;98.90;;;;;;4772076;30;20977;-70
2021/10/05 02:12:07;;;;;;;15.83;12.03;;;15.00;99.10;;;;;;4772061;30;20454;-70
2021/10/05 02:14:33;;;;;;;18.10;11.87;;;15.00;98.90;;;;;;4772159;30;20542;-70
2021/10/05 02:16:59;;;;;;;17.73;13.03;;;14.90;98.90;;;;;;4772251;30;20847;-70
2021/10/05 02:19:25;;;;;;;17.23;12.87;;;14.90;98.90;;;;;;4772143;30;20489;-71
2021/10/05 02:21:51;;;;;;;16.67;11.30;;;14.80;99.00;;;;;;4771902;30;20424;-70
2021/10/05 02:26:50;;;;;;;19.93;12.17;;;14.70;99.20;;;;;;4773379;30;20431;-70
2021/10/05 02:29:17;;;;;;;16.20;12.90;;;14.60;99.20;;;;;;4771998;30;20876;-70
2021/10/05 02:31:44;;;;;;;19.57;13.50;;;14.60;99.30;;;;;;4772042;30;20433;-69
2021/10/05 02:34:12;;;;;;;16.37;13.03;;;14.60;99.30;;;;;;4771692;30;20839;-70
2021/10/05 02:36:39;;;;;;;16.40;13.63;;;14.60;99.30;;;;;;4772066;30;20826;-70
2021/10/05 02:39:06;;;;;;;20.93;14.60;;;14.50;99.30;;;;;;4771487;30;20459;-70
2021/10/05 02:41:32;;;;;;;18.00;13.10;;;14.50;99.40;;;;;;4771330;30;20436;-70
2021/10/05 02:44:01;;;;;;;16.70;13.33;;;14.50;99.40;;;;;;4771555;30;20444;-70
2021/10/05 02:46:27;;;;;;;16.20;13.40;;;14.40;99.40;;;;;;4771780;30;20443;-70
2021/10/05 02:48:53;;;;;;;15.00;12.27;;;14.40;99.40;;;;;;4771569;30;20586;-70
2021/10/05 02:51:19;;;;;;;17.83;14.60;;;14.40;99.40;;;;;;4771504;30;20452;-70
2021/10/05 02:53:47;;;;;;;18.87;13.43;;;14.40;99.50;;;;;;4772771;30;20480;-71
2021/10/05 02:56:13;;;;;;;17.73;13.07;;;14.30;99.60;;;;;;4771473;30;20484;-70
2021/10/05 02:58:39;;;;;;;16.37;14.33;;;14.30;99.50;;;;;;4771432;30;20519;-70
2021/10/05 03:01:05;;;;;;;17.27;12.50;;;14.30;99.50;;;;;;4771102;30;20490;-70
2021/10/05 03:03:32;;;;;;;17.93;14.60;;;14.30;99.60;;;;;;4771301;30;20420;-70
2021/10/05 03:05:58;;;;;;;17.30;14.17;;;14.20;99.80;;;;;;4771161;30;20484;-70
2021/10/05 03:08:28;;;;;;;16.90;13.40;;;14.20;99.80;;;;;;4786225;30;20455;-70
2021/10/05 03:10:55;;;;;;;17.23;13.17;;;14.20;99.80;;;;;;4771082;30;20522;-70
2021/10/05 03:13:22;;;;;;;20.33;14.00;;;14.20;99.70;;;;;;4771227;30;20491;-69
2021/10/05 03:15:54;;;;;;;16.17;13.27;;;14.20;99.70;;;;;;4771219;30;20468;-70
2021/10/05 03:18:20;;;;;;;20.60;14.00;;;14.20;99.80;;;;;;4771340;30;20787;-70
2021/10/05 03:20:47;;;;;;;16.13;12.90;;;14.10;99.80;;;;;;4771343;30;20467;-70
2021/10/05 03:23:14;;;;;;;16.30;13.43;;;14.10;99.90;;;;;;4771091;30;20432;-70
2021/10/05 03:25:40;;;;;;;15.33;13.27;;;14.10;99.90;;;;;;4772144;30;20455;-70
2021/10/05 03:28:07;;;;;;;19.73;13.27;;;14.10;99.90;;;;;;4770954;30;20435;-70
2021/10/05 03:30:34;;;;;;;16.53;13.60;;;14.10;99.90;;;;;;4781054;30;20471;-70
2021/10/05 03:33:00;;;;;;;15.63;13.93;;;14.00;99.90;;;;;;4788729;30;20487;-70
2021/10/05 03:35:26;;;;;;;22.70;15.13;;;14.00;99.90;;;;;;4790176;29;20495;-70
2021/10/05 03:37:53;;;;;;;18.00;14.23;;;14.00;99.90;;;;;;4788938;30;20518;-70
2021/10/05 03:40:19;;;;;;;19.47;14.17;;;14.00;99.90;;;;;;4788586;30;20506;-70
2021/10/05 03:42:49;;;;;;;20.63;14.40;;;14.00;99.90;;;;;;4789876;29;20423;-70
2021/10/05 03:45:15;;;;;;;20.27;15.80;;;13.90;99.90;;;;;;4788453;30;20474;-70
2021/10/05 03:47:41;;;;;;;24.03;15.50;;;13.90;99.90;;;;;;4788471;30;20439;-70
2021/10/05 03:50:09;;;;;;;20.40;16.07;;;13.90;99.90;;;;;;4788578;30;20473;-70
2021/10/05 03:52:37;;;;;;;19.00;15.50;;;13.80;99.90;;;;;;4788185;30;21064;-70
2021/10/05 03:55:03;;;;;;;20.90;16.13;;;13.70;99.90;;;;;;4788300;30;20459;-70
2021/10/05 03:57:31;;;;;;;17.17;15.23;;;13.70;99.90;;;;;;4788069;30;20428;-70
2021/10/05 03:59:57;;;;;;;21.93;15.00;;;13.60;99.90;;;;;;4787762;30;20487;-70
2021/10/05 04:02:23;;;;;;;19.20;14.77;;;13.60;99.90;;;;;;4788205;30;20450;-70
2021/10/05 04:04:49;;;;;;;18.63;14.93;;;13.50;99.90;;;;;;4788230;30;20272;-70
2021/10/05 04:07:16;;;;;;;17.30;14.77;;;13.50;99.90;;;;;;4788138;30;20791;-70
2021/10/05 04:09:43;;;;;;;21.00;14.80;;;13.50;99.90;;;;;;4787994;30;20474;-70
2021/10/05 04:12:11;;;;;;;23.97;14.47;;;13.50;99.90;;;;;;4787972;30;20489;-70
2021/10/05 04:14:38;;;;;;;18.80;15.10;;;13.50;99.90;;;;;;4787692;30;20484;-70
2021/10/05 04:17:04;;;;;;;16.40;14.63;;;13.50;99.90;;;;;;4787837;29;20477;-70
2021/10/05 04:19:30;;;;;;;18.20;13.63;;;13.50;99.90;;;;;;4787817;30;20466;-70
2021/10/05 04:21:56;;;;;;;16.70;14.40;;;13.40;99.90;;;;;;4787790;30;20408;-70
2021/10/05 04:24:24;;;;;;;18.57;13.10;;;13.40;99.90;;;;;;4787574;30;20516;-70
2021/10/05 04:26:52;;;;;;;18.57;13.70;;;13.40;99.90;;;;;;4787736;30;20432;-70
2021/10/05 04:29:18;;;;;;;20.30;14.93;;;13.30;99.90;;;;;;4787334;30;20450;-71
2021/10/05 04:31:46;;;;;;;16.60;13.70;;;13.30;99.90;;;;;;4795372;29;20442;-71
2021/10/05 04:34:13;;;;;;;20.60;13.47;;;13.30;99.90;;;;;;4787620;30;20826;-70
2021/10/05 04:36:40;;;;;;;17.80;13.45;;;13.30;99.90;;;;;;4787418;30;20432;-70
2021/10/05 04:39:07;;;;;;;15.20;13.10;;;13.30;99.90;;;;;;4802951;29;20200;-70
2021/10/05 04:41:33;;;;;;;17.35;13.38;;;13.30;99.90;;;;;;4800275;29;20203;-70
2021/10/05 04:43:59;;;;;;;16.23;13.40;;;13.30;99.90;;;;;;4804036;29;20201;-69
2021/10/05 04:46:25;;;;;;;15.90;13.90;;;13.30;99.90;;;;;;4792373;29;20467;-70
2021/10/05 04:48:52;;;;;;;17.67;15.68;;;13.30;99.90;;;;;;4773206;30;20476;-70
2021/10/05 04:51:18;;;;;;;19.15;14.70;;;13.30;99.90;;;;;;4769343;30;20215;-70
2021/10/05 04:53:47;;;;;;;18.03;13.93;;;13.30;99.90;;;;;;4769838;30;20276;-71
2021/10/05 04:56:13;;;;;;;18.92;14.02;;;13.30;99.90;;;;;;4779916;30;20456;-71
2021/10/05 04:58:42;;;;;;;17.10;13.80;;;13.30;99.90;;;;;;4778256;30;20233;-70
2021/10/05 05:01:08;;;;;;;19.80;15.10;;;13.30;99.90;;;;;;4766536;30;20484;-71
2021/10/05 05:03:35;;;;;;;22.30;13.77;;;13.20;99.90;;;;;;4767311;30;20758;-71
2021/10/05 05:06:03;;;;;;;18.87;14.03;;;13.20;99.90;;;;;;4779232;30;20527;-71
2021/10/05 05:08:30;;;;;;;17.55;14.00;;;13.20;99.90;;;;;;4770884;29;20886;-71
2021/10/05 05:10:56;;;;;;;15.45;11.60;;;13.20;99.90;;;;;;4791786;29;20301;-71
2021/10/05 05:13:23;;;;;;;19.17;14.00;;;13.20;99.90;;;;;;4783645;30;20220;-70
2021/10/05 05:15:49;;;;;;;16.08;12.60;;;13.20;99.90;;;;;;4786696;30;20206;-71
2021/10/05 05:18:16;;;;;;;16.60;13.05;;;13.20;99.90;;;;;;4785734;29;20187;-69
2021/10/05 05:20:42;;;;;;;16.98;12.50;;;13.20;99.90;;;;;;4793815;29;20221;-70
2021/10/05 05:23:09;;;;;;;18.10;14.33;;;13.20;99.90;;;;;;4784489;29;20191;-71
2021/10/05 05:25:36;;;;;;;18.20;12.52;;;13.20;99.90;;;;;;4787518;29;20993;-71
2021/10/05 05:28:05;;;;;;;21.03;12.10;;;13.20;99.90;;;;;;4792025;29;20252;-71
2021/10/05 05:30:32;;;;;;;15.95;11.82;;;13.20;99.90;;;;;;4797080;29;20479;-71
2021/10/05 05:32:59;;;;;;;14.73;12.13;;;13.20;99.90;;;;;;4780278;29;20215;-71
2021/10/05 05:35:25;;;;;;;15.32;12.90;;;13.20;99.90;;;;;;4780108;29;20647;-71
2021/10/05 05:37:52;;;;;;;20.90;13.33;;;13.20;99.90;;;;;;4769066;30;20196;-70
2021/10/05 05:40:19;;;;;;;18.23;12.98;;;13.20;99.90;;;;;;4770219;30;20587;-71
2021/10/05 05:42:46;;;;;;;18.23;12.38;;;13.20;99.90;;;;;;4773972;29;20192;-71
2021/10/05 05:45:13;;;;;;;17.33;12.30;;;13.20;99.90;;;;;;4781608;29;20359;-71
2021/10/05 05:47:39;;;;;;;16.13;12.82;;;13.20;99.90;;;;;;4785479;30;20196;-71
2021/10/05 05:50:07;;;;;;;14.68;12.48;;;13.20;99.90;;;;;;4769743;30;20226;-71
2021/10/05 05:52:36;;;;;;;14.23;11.65;;;13.20;99.90;;;;;;4768465;30;20277;-68
2021/10/05 05:55:04;;;;;;;16.63;12.15;;;13.30;99.90;;;;;;4789392;29;20668;-69
2021/10/05 05:57:29;;;;;;;17.37;13.10;;;13.30;99.90;;;;;;4800751;29;20198;-67
2021/10/05 05:59:58;;;;;;;16.70;12.83;;;13.30;99.90;;;;;;4783433;29;20492;-69
2021/10/05 06:02:24;;;;;;;16.97;11.87;;;13.40;99.90;;;;;;4789271;29;20442;-69
2021/10/05 06:04:52;;;;;;;17.77;12.57;;;13.40;99.90;;;;;;4790309;29;20463;-69
2021/10/05 06:07:21;;;;;;;18.40;12.27;;;13.40;99.90;;;;;;4788963;29;20814;-69
2021/10/05 06:09:46;;;;;;;15.02;12.10;;;13.40;99.90;;;;;;4787802;29;20848;-70
2021/10/05 06:12:17;;;;;;;17.33;11.73;;;13.50;99.90;;;;;;4787656;29;20223;-71
2021/10/05 06:14:45;;;;;;;15.63;11.53;;;13.50;99.90;;;;;;4786343;29;20294;-71
2021/10/05 06:17:12;;;;;;;16.97;12.07;;;13.60;99.90;;;;;;4781373;29;20776;-71
2021/10/05 06:19:38;;;;;;;14.40;11.40;;;13.70;99.90;;;;;;4788567;29;20480;-71
2021/10/05 06:22:05;;;;;;;17.10;10.97;;;13.70;99.90;;;;;;4795244;29;20434;-70
2021/10/05 06:24:36;;;;;;;15.13;11.50;;;13.80;99.90;;;;;;4787127;30;20972;-71
2021/10/05 06:27:03;;;;;;;15.00;10.90;;;13.90;99.90;;;;;;4788740;29;20489;-71
2021/10/05 06:29:34;;;;;;;21.33;10.83;;;13.90;99.90;;;;;;4794055;29;20477;-72
2021/10/05 06:32:00;;;;;;;16.13;11.10;;;14.00;99.90;;;;;;4784483;29;20874;-69
2021/10/05 06:34:29;;;;;;;12.87;10.30;;;14.10;99.90;;;;;;4794936;29;20475;-69
2021/10/05 06:36:57;;;;;;;12.40;10.03;;;14.10;99.90;;;;;;4791213;29;20538;-69
2021/10/05 06:39:24;;;;;;;13.83;11.40;;;14.20;99.90;;;;;;4770734;30;20498;-69
2021/10/05 06:41:51;;;;;;;13.33;11.30;;;14.30;99.90;;;;;;4788161;29;20853;-69
2021/10/05 06:44:18;;;;;;;13.80;10.53;;;14.30;99.90;;;;;;4796532;29;20466;-69
2021/10/05 06:46:44;;;;;;;12.53;10.00;;;14.40;99.90;;;;;;4801962;29;20871;-69
2021/10/05 06:49:11;;;;;;;14.13;10.20;;;14.50;99.90;;;;;;4787431;29;20483;-69
2021/10/05 06:51:38;;;;;;;11.90;10.17;;;14.60;99.90;;;;;;4794269;29;20425;-69
2021/10/05 06:54:05;;;;;;;14.87;11.07;;;14.70;99.90;;;;;;4789542;29;20513;-69
2021/10/05 06:56:34;;;;;;;16.23;11.67;;;14.80;99.90;;;;;;4791903;29;20439;-69
2021/10/05 06:59:01;;;;;;;13.83;10.27;;;14.80;99.90;;;;;;4788754;29;20471;-69
2021/10/05 07:01:27;;;;;;;15.80;9.90;;;14.90;99.90;;;;;;4796731;29;20488;-69
2021/10/05 07:03:54;;;;;;;16.00;10.60;;;15.00;99.90;;;;;;4788842;29;20793;-69
2021/10/05 07:06:26;;;;;;;11.20;9.47;;;15.10;99.90;;;;;;4796224;29;20467;-69
2021/10/05 07:08:55;;;;;;;17.23;9.87;;;15.20;99.90;;;;;;4787051;30;20443;-69
2021/10/05 07:11:21;;;;;;;11.80;9.83;;;15.30;99.90;;;;;;4803715;29;20589;-69
2021/10/05 07:13:48;;;;;;;13.40;10.20;;;15.40;99.90;;;;;;4794561;29;21106;-69
2021/10/05 07:16:14;;;;;;;11.03;9.30;;;15.50;99.90;;;;;;4799425;29;20454;-69
2021/10/05 07:18:44;;;;;;;11.70;10.50;;;15.60;99.90;;;;;;4788003;29;20508;-70
2021/10/05 07:21:11;;;;;;;14.17;10.57;;;15.70;99.90;;;;;;4771157;30;21010;-69
2021/10/05 07:23:38;;;;;;;13.93;9.77;;;15.80;99.90;;;;;;4779136;29;20451;-69
2021/10/05 07:26:09;;;;;;;10.50;9.40;;;15.90;99.90;;;;;;4793829;29;20466;-70
2021/10/05 07:28:37;;;;;;;11.27;8.77;;;16.10;99.90;;;;;;4798746;29;20506;-70
2021/10/05 07:31:03;;;;;;;18.63;10.03;;;16.20;99.90;;;;;;4806212;29;21085;-69
2021/10/05 07:33:29;;;;;;;10.90;9.80;;;16.30;99.90;;;;;;4780276;29;20570;-70
2021/10/05 07:35:58;;;;;;;12.00;9.60;;;16.40;99.90;;;;;;4798360;29;20745;-70
2021/10/05 07:38:24;;;;;;;10.60;8.53;;;16.60;99.90;;;;;;4791561;29;20806;-70
2021/10/05 07:40:53;;;;;;;11.97;9.77;;;16.70;99.90;;;;;;4794746;29;20471;-70
2021/10/05 07:43:18;;;;;;;12.73;9.10;;;16.90;99.90;;;;;;4785078;29;20447;-70
2021/10/05 07:45:45;;;;;;;11.23;9.50;;;17.00;99.90;;;;;;4794713;29;20474;-70
2021/10/05 07:48:12;;;;;;;10.93;9.23;;;17.20;99.90;;;;;;4797432;29;20834;-70
2021/10/05 07:50:39;;;;;;;11.37;8.40;;;17.40;99.90;;;;;;4793171;29;20567;-70
2021/10/05 07:53:05;;;;;;;12.90;9.13;;;17.70;99.90;;;;;;4802484;29;20490;-70
2021/10/05 07:55:32;;;;;;;10.33;9.20;;;18.10;99.90;;;;;;4796067;29;20554;-70
2021/10/05 07:58:00;;;;;;;9.77;8.83;;;18.50;99.30;;;;;;4794731;29;20438;-69
2021/10/05 08:00:29;;;;;;;13.20;8.97;;;19.10;98.40;;;;;;4788439;29;20544;-69
2021/10/05 08:02:55;;;;;;;14.00;9.40;;;19.70;98.00;;;;;;4792403;29;20447;-71
2021/10/05 08:05:22;;;;;;;11.80;9.20;;;20.40;97.00;;;;;;4786395;29;20474;-70
2021/10/05 08:08:11;;;;;;;10.97;8.30;;;21.40;95.90;;;;;;4790528;29;20203;-70
2021/10/05 08:10:41;;;;;;;11.07;8.20;;;22.20;94.20;;;;;;4788432;29;20471;-70
2021/10/05 08:13:09;;;;;;;26.83;18.07;;;22.90;93.40;;;;;;4802032;29;20486;-70
2021/10/05 08:15:37;;;;;;;10.13;8.40;;;23.40;92.50;;;;;;4793240;29;21054;-70
2021/10/05 08:18:03;;;;;;;10.47;7.80;;;23.90;91.70;;;;;;4789964;29;20450;-69
2021/10/05 08:20:30;;;;;;;9.70;7.90;;;24.40;90.70;;;;;;4783819;29;20821;-71
2021/10/05 08:22:56;;;;;;;10.50;7.87;;;24.60;90.00;;;;;;4786854;29;20557;-71
2021/10/05 08:25:26;;;;;;;12.77;8.93;;;24.80;89.10;;;;;;4785296;29;20519;-71
2021/10/05 08:31:22;;;;;;;10.37;7.50;;;25.40;86.60;;;;;;4918627;24;20513;-90
2021/10/05 08:33:49;;;;;;;9.60;6.80;;;25.80;86.90;;;;;;4831257;29;20471;-92
2021/10/05 08:36:18;;;;;;;8.57;7.30;;;26.20;85.60;;;;;;4814363;29;20213;-92
2021/10/05 08:38:44;;;;;;;8.37;7.43;;;26.80;83.90;;;;;;4798124;29;21049;-91
2021/10/05 08:41:09;;;;;;;8.80;7.40;;;27.10;82.10;;;;;;4799517;29;20457;-92
2021/10/05 08:43:35;;;;;;;8.40;7.57;;;27.00;81.30;;;;;;4784258;29;20496;-91
2021/10/05 08:46:05;;;;;;;7.60;6.63;;;26.80;81.30;;;;;;4786762;29;20602;-91
2021/10/05 08:48:36;;;;;;;10.10;7.60;;;26.40;81.60;;;;;;4786065;30;20429;-89
2021/10/05 08:51:04;;;;;;;11.97;7.73;;;25.90;82.10;;;;;;4784365;29;20516;-92
2021/10/05 08:53:37;;;;;;;8.17;7.33;;;25.50;83.00;;;;;;4787705;30;20996;-90
2021/10/05 08:56:05;;;;;;;12.27;8.10;;;25.10;83.80;;;;;;4790663;29;20914;-91
2021/10/05 08:58:31;;;;;;;8.20;7.37;;;24.70;85.00;;;;;;4802235;29;20417;-91
2021/10/05 09:01:09;;;;;;;8.23;7.43;;;24.20;85.50;;;;;;4793014;29;20482;-92
2021/10/05 09:03:35;;;;;;;9.60;7.23;;;23.80;86.10;;;;;;4796221;29;20185;-91
2021/10/05 09:06:12;;;;;;;13.23;7.90;;;23.60;86.70;;;;;;4797565;29;20464;-90
2021/10/05 09:08:42;;;;;;;10.33;8.20;;;23.40;87.30;;;;;;4797556;29;20446;-92
2021/10/05 09:11:10;;;;;;;11.43;6.73;;;23.30;87.70;;;;;;4786634;29;20855;-92
2021/10/05 09:13:41;;;;;;;10.10;6.97;;;23.20;87.10;;;;;;4788759;29;20467;-90
2021/10/05 09:16:17;;;;;;;26.33;7.47;;;23.00;87.40;;;;;;4791635;29;20512;-90
2021/10/05 09:19:00;;;;;;;9.47;7.03;;;22.80;88.30;;;;;;4799035;30;20439;-91
2021/10/05 09:21:34;;;;;;;10.23;7.20;;;22.70;88.30;;;;;;4792572;29;20467;-91
2021/10/05 09:24:06;;;;;;;9.40;8.37;;;22.70;88.10;;;;;;4795955;29;20450;-90
2021/10/05 09:26:57;;;;;;;10.83;6.80;;;22.60;87.60;;;;;;4788791;30;20455;-92
2021/10/05 09:29:35;;;;;;;11.70;6.60;;;22.60;88.00;;;;;;4787303;29;20980;-92
2021/10/05 09:32:15;;;;;;;12.90;7.20;;;22.70;88.30;;;;;;4790691;30;20493;-90
2021/10/05 09:37:43;;;;;;;11.03;7.57;;;23.00;88.30;;;;;;4789218;29;20442;-90
2021/10/05 09:40:16;;;;;;;11.67;8.20;;;23.10;88.10;;;;;;4797266;29;20463;-91
2021/10/05 09:42:44;;;;;;;11.70;7.30;;;23.10;88.20;;;;;;4799731;29;20190;-93
2021/10/05 09:45:13;;;;;;;8.47;7.33;;;23.00;87.80;;;;;;4808127;29;20482;-92
2021/10/05 09:47:53;;;;;;;10.60;6.73;;;23.00;88.10;;;;;;4804257;29;20447;-92
2021/10/05 09:50:32;;;;;;;11.83;7.10;;;23.10;88.70;;;;;;4790942;29;20498;-95
2021/10/05 09:53:01;;;;;;;10.50;7.23;;;23.10;87.70;;;;;;4790597;29;20479;-92
2021/10/05 09:55:38;;;;;;;7.43;6.70;;;23.10;87.20;;;;;;4790130;30;20478;-93
2021/10/05 09:58:05;;;;;;;12.57;7.87;;;23.10;87.60;;;;;;4799827;29;20457;-92
2021/10/05 10:00:34;;;;;;;8.90;7.20;;;23.20;87.80;;;;;;4789416;29;20459;-92
2021/10/05 10:03:00;;;;;;;13.13;8.03;;;23.20;88.10;;;;;;4788195;29;20496;-92
2021/10/05 10:05:28;;;;;;;7.70;6.73;;;23.20;87.80;;;;;;4789334;29;20478;-92
2021/10/05 10:07:56;;;;;;;11.07;8.50;;;23.20;86.90;;;;;;4800736;29;20462;-93
2021/10/05 10:10:29;;;;;;;12.50;6.60;;;23.20;87.50;;;;;;4793776;29;20816;-92
2021/10/05 10:13:01;;;;;;;13.07;7.37;;;23.20;86.90;;;;;;4783336;30;20578;-92
2021/10/05 10:15:35;;;;;;;11.07;7.37;;;23.30;86.80;;;;;;4784821;29;20466;-90
2021/10/05 10:18:17;;;;;;;9.30;6.73;;;23.30;87.70;;;;;;4784066;30;20519;-90
2021/10/05 10:20:53;;;;;;;16.03;7.70;;;23.30;86.90;;;;;;4790142;29;20487;-91
2021/10/05 10:23:25;;;;;;;12.30;7.03;;;23.40;86.80;;;;;;4790612;30;20505;-92
2021/10/05 10:25:52;;;;;;;13.53;7.07;;;23.40;85.70;;;;;;4790276;29;20471;-91
2021/10/05 10:28:30;;;;;;;15.33;7.63;;;23.40;85.70;;;;;;4798692;29;20744;-90
2021/10/05 10:31:00;;;;;;;15.53;7.40;;;23.40;86.00;;;;;;4787310;29;20569;-92
2021/10/05 10:33:28;;;;;;;9.20;7.30;;;23.40;85.70;;;;;;4787873;30;20536;-90
2021/10/05 10:35:56;;;;;;;19.33;7.30;;;23.40;85.50;;;;;;4791568;29;20460;-90
2021/10/05 10:38:28;;;;;;;9.47;7.67;;;23.40;86.10;;;;;;4791562;30;20969;-91
2021/10/05 10:40:55;;;;;;;8.83;7.23;;;23.40;86.00;;;;;;4796971;29;20511;-92
2021/10/05 10:43:25;;;;;;;12.57;7.17;;;23.50;86.00;;;;;;4787514;29;20494;-93
2021/10/05 10:45:57;;;;;;;12.80;7.37;;;23.60;86.40;;;;;;4791512;29;20475;-93
2021/10/05 10:48:31;;;;;;;12.97;7.53;;;23.70;86.30;;;;;;4789063;30;20448;-91
2021/10/05 10:51:02;;;;;;;9.80;7.37;;;23.70;84.70;;;;;;4772644;30;20480;-91
2021/10/05 10:53:38;;;;;;;12.37;8.60;;;23.70;85.10;;;;;;4787589;30;20490;-92
2021/10/05 10:56:05;;;;;;;9.63;8.60;;;23.80;85.00;;;;;;4795472;29;20506;-90
2021/10/05 10:58:40;;;;;;;14.90;9.00;;;23.80;85.10;;;;;;4793517;29;20455;-91
2021/10/05 11:01:09;;;;;;;14.37;8.60;;;23.80;85.90;;;;;;4798441;29;20465;-92
2021/10/05 11:03:36;;;;;;;17.60;7.50;;;23.90;84.80;;;;;;4796151;29;20441;-90
2021/10/05 11:06:11;;;;;;;15.63;8.10;;;24.00;84.70;;;;;;4789844;29;20484;-92
2021/10/05 11:08:36;;;;;;;14.50;7.90;;;24.00;84.50;;;;;;4789100;29;20485;-90
2021/10/05 11:11:03;;;;;;;13.53;8.37;;;24.00;84.80;;;;;;4789003;29;20504;-92
2021/10/05 11:13:29;;;;;;;13.70;9.13;;;24.00;84.00;;;;;;4790488;30;20295;-91
2021/10/05 11:15:55;;;;;;;12.90;8.40;;;24.00;83.80;;;;;;4790306;29;20465;-91
2021/10/05 11:18:24;;;;;;;14.03;9.13;;;24.10;83.80;;;;;;4792477;30;20192;-91
2021/10/05 11:20:56;;;;;;;12.63;7.73;;;24.10;83.20;;;;;;4797832;29;20308;-93
2021/10/05 11:23:25;;;;;;;12.60;7.17;;;24.10;83.00;;;;;;4790445;30;20430;-92
2021/10/05 11:25:52;;;;;;;13.07;7.97;;;24.10;83.10;;;;;;4796828;29;20469;-93
2021/10/05 11:28:22;;;;;;;11.07;7.37;;;24.10;83.70;;;;;;4802426;29;20877;-92
2021/10/05 11:30:57;;;;;;;9.77;7.80;;;24.10;83.10;;;;;;4797116;29;20526;-92
2021/10/05 11:33:35;;;;;;;11.53;7.00;;;24.10;82.50;;;;;;4788912;30;20566;-91
2021/10/05 11:36:23;;;;;;;11.50;6.63;;;24.10;83.30;;;;;;4784490;29;21001;-92
2021/10/05 11:38:50;;;;;;;11.00;7.03;;;24.20;83.60;;;;;;4795728;29;20962;-92
2021/10/05 11:41:17;;;;;;;11.40;6.73;;;24.20;83.60;;;;;;4788046;29;20462;-90
2021/10/05 11:43:51;;;;;;;9.83;6.40;;;24.30;83.00;;;;;;4792979;29;20490;-93
2021/10/05 11:46:19;;;;;;;12.27;6.70;;;24.30;83.20;;;;;;4796916;29;20484;-90
2021/10/05 11:48:50;;;;;;;10.30;6.70;;;24.30;83.40;;;;;;4790513;29;20424;-91
2021/10/05 11:51:19;;;;;;;12.17;7.27;;;24.40;83.80;;;;;;4798184;29;20491;-91
2021/10/05 11:53:46;;;;;;;11.03;6.73;;;24.40;84.20;;;;;;4794360;29;21030;-93
2021/10/05 11:56:22;;;;;;;11.00;6.07;;;24.50;83.10;;;;;;4795884;29;20462;-90
2021/10/05 11:58:56;;;;;;;12.90;7.23;;;24.60;82.40;;;;;;4776199;29;20444;-92
2021/10/05 12:01:23;;;;;;;14.47;6.50;;;24.60;81.90;;;;;;4804768;29;20475;-91
2021/10/05 12:03:52;;;;;;;7.37;6.60;;;24.70;82.10;;;;;;4790915;29;20475;-92
2021/10/05 12:06:41;;;;;;;10.73;7.00;;;24.70;81.60;;;;;;4789787;29;20614;-92
2021/10/05 12:09:15;;;;;;;10.07;6.70;;;24.70;82.00;;;;;;4784573;29;20445;-92
2021/10/05 12:11:47;;;;;;;14.77;7.43;;;24.70;82.20;;;;;;4770154;30;20775;-91
2021/10/05 12:14:15;;;;;;;12.80;6.60;;;24.70;82.30;;;;;;4778290;29;20480;-92
2021/10/05 12:16:53;;;;;;;13.60;7.00;;;24.70;83.00;;;;;;4786227;30;20511;-92
2021/10/05 12:19:32;;;;;;;8.63;6.50;;;24.70;82.10;;;;;;4779401;29;20457;-91
2021/10/05 12:21:58;;;;;;;7.53;6.70;;;24.70;82.10;;;;;;4785506;30;20456;-90
2021/10/05 12:24:35;;;;;;;9.87;6.87;;;24.60;81.80;;;;;;4783478;29;20504;-91
2021/10/05 12:27:02;;;;;;;9.03;6.70;;;24.60;82.00;;;;;;4788346;29;20437;-93
2021/10/05 12:29:27;;;;;;;13.60;7.47;;;24.60;82.10;;;;;;4778136;29;20462;-91
2021/10/05 12:31:55;;;;;;;15.80;7.40;;;24.60;81.60;;;;;;4795773;29;20487;-92
2021/10/05 12:34:32;;;;;;;11.30;6.70;;;24.60;81.20;;;;;;4791605;29;20228;-92
2021/10/05 12:36:58;;;;;;;9.97;6.93;;;24.60;82.20;;;;;;4793249;29;20449;-92
2021/10/05 12:39:24;;;;;;;10.17;6.90;;;24.70;82.70;;;;;;4798480;29;20473;-91
2021/10/05 12:41:58;;;;;;;10.57;6.80;;;24.70;82.50;;;;;;4792767;29;20465;-92
2021/10/05 12:44:24;;;;;;;20.47;7.63;;;24.80;82.40;;;;;;4794735;29;20592;-91
2021/10/05 12:46:59;;;;;;;14.30;7.50;;;24.80;81.80;;;;;;4788254;29;20533;-91
2021/10/05 12:49:25;;;;;;;14.57;7.20;;;24.80;81.10;;;;;;4785123;29;20475;-91